Time;durP1;ratioP1;P1;durP2;ratioP2;P2;SDS_P1;SDS_P2;PMS_P1;PMS_P2;Temp;Humidity;BMP_temperature;BMP_pressure;BME280_temperature;BME280_humidity;BME280_pressure;Samples;Min_cycle;Max_cycle;Signal;HPM_P1;HPM_P2
2022/10/10 00:01:55;;;;;;;18.33;12.57;;;;;;;;;;5054277;28;20223;-60
2022/10/10 00:04:22;;;;;;;20.50;12.93;;;;;;;;;;5055462;28;20204;-60
2022/10/10 00:06:49;;;;;;;18.17;12.38;;;;;;;;;;5055266;28;20207;-60
2022/10/10 00:09:16;;;;;;;19.88;11.60;;;;;;;;;;5055234;28;20631;-60
2022/10/10 00:11:43;;;;;;;17.45;12.20;;;;;;;;;;5055087;28;20254;-59
2022/10/10 00:14:10;;;;;;;18.10;12.55;;;;;;;;;;5055428;28;20291;-59
2022/10/10 00:16:37;;;;;;;23.10;13.13;;;;;;;;;;5054930;28;20241;-60
2022/10/10 00:19:05;;;;;;;25.60;13.13;;;;;;;;;;5055131;28;20359;-59
2022/10/10 00:21:32;;;;;;;22.70;13.65;;;;;;;;;;5054938;28;20200;-58
2022/10/10 00:23:59;;;;;;;19.58;12.75;;;;;;;;;;5055522;28;20200;-58
2022/10/10 00:26:26;;;;;;;19.67;13.00;;;;;;;;;;5054991;28;20222;-60
2022/10/10 00:28:53;;;;;;;19.00;12.88;;;;;;;;;;5055136;28;20305;-60
2022/10/10 00:31:21;;;;;;;20.08;13.05;;;;;;;;;;5054626;28;20204;-60
2022/10/10 00:33:47;;;;;;;18.98;12.60;;;;;;;;;;5055115;28;20269;-59
2022/10/10 00:36:15;;;;;;;17.40;12.20;;;;;;;;;;5054537;28;20643;-60
2022/10/10 00:38:41;;;;;;;16.90;11.77;;;;;;;;;;5054967;28;20227;-60
2022/10/10 00:41:09;;;;;;;18.58;12.15;;;;;;;;;;5055063;28;20561;-59
2022/10/10 00:43:36;;;;;;;19.70;12.45;;;;;;;;;;5054659;28;20646;-59
2022/10/10 00:46:03;;;;;;;18.48;11.60;;;;;;;;;;5054787;28;20533;-60
2022/10/10 00:48:32;;;;;;;17.95;12.00;;;;;;;;;;5054657;28;20239;-60
2022/10/10 00:51:09;;;;;;;16.38;12.13;;;;;;;;;;5054980;28;20210;-60
2022/10/10 00:53:48;;;;;;;19.55;11.77;;;;;;;;;;5055203;28;20204;-60
2022/10/10 00:56:20;;;;;;;19.65;11.65;;;;;;;;;;5053605;28;20191;-60
2022/10/10 00:58:50;;;;;;;18.40;11.15;;;;;;;;;;5054585;28;20658;-60
2022/10/10 01:01:16;;;;;;;16.35;11.95;;;;;;;;;;5054524;28;20638;-60
2022/10/10 01:03:44;;;;;;;17.25;11.02;;;;;;;;;;5054641;28;20543;-60
2022/10/10 01:06:11;;;;;;;19.77;11.00;;;;;;;;;;5054369;28;20200;-59
2022/10/10 01:08:38;;;;;;;15.77;11.25;;;;;;;;;;5054122;28;20544;-59
2022/10/10 01:11:18;;;;;;;15.75;11.13;;;;;;;;;;5055851;28;20210;-60
2022/10/10 01:14:06;;;;;;;20.27;11.40;;;;;;;;;;5057479;28;20204;-60
2022/10/10 01:16:48;;;;;;;15.40;11.02;;;;;;;;;;5057566;28;20227;-59
2022/10/10 01:19:25;;;;;;;13.52;9.05;;;;;;;;;;5057577;28;20215;-60
2022/10/10 01:21:55;;;;;;;13.60;9.27;;;;;;;;;;5058192;28;20618;-60
2022/10/10 01:24:46;;;;;;;16.05;9.82;;;;;;;;;;5058359;28;20214;-60
2022/10/10 01:27:33;;;;;;;16.17;10.40;;;;;;;;;;5057365;28;20282;-60
2022/10/10 01:30:08;;;;;;;16.35;10.95;;;;;;;;;;5057509;28;20218;-59
2022/10/10 01:32:43;;;;;;;15.77;11.27;;;;;;;;;;5058429;28;20287;-60
2022/10/10 01:35:27;;;;;;;14.95;11.00;;;;;;;;;;5058234;28;20195;-59
2022/10/10 01:38:09;;;;;;;17.25;11.73;;;;;;;;;;5058425;28;20209;-60
2022/10/10 01:40:50;;;;;;;16.48;10.52;;;;;;;;;;5057990;28;20685;-60
2022/10/10 01:43:17;;;;;;;18.35;11.40;;;;;;;;;;5057206;28;20702;-59
2022/10/10 01:45:50;;;;;;;17.77;11.40;;;;;;;;;;5057969;28;20204;-60
2022/10/10 01:48:27;;;;;;;16.33;9.93;;;;;;;;;;5058334;28;20224;-60
2022/10/10 01:51:32;;;;;;;14.45;10.13;;;;;;;;;;5058019;28;20257;-60
2022/10/10 01:54:23;;;;;;;14.52;10.50;;;;;;;;;;5057708;28;20294;-60
2022/10/10 01:57:15;;;;;;;10.80;7.95;;;;;;;;;;5057887;28;20208;-60
2022/10/10 01:59:51;;;;;;;12.48;8.27;;;;;;;;;;5057384;28;20244;-59
2022/10/10 02:02:40;;;;;;;11.27;7.95;;;;;;;;;;5057836;28;20188;-60
2022/10/10 02:05:22;;;;;;;11.85;7.90;;;;;;;;;;5057814;28;20204;-59
2022/10/10 02:07:55;;;;;;;11.35;7.63;;;;;;;;;;5057272;28;20215;-60
2022/10/10 02:10:35;;;;;;;11.38;8.15;;;;;;;;;;5056896;28;20196;-60
2022/10/10 02:13:03;;;;;;;13.98;9.48;;;;;;;;;;5056630;28;20245;-59
2022/10/10 02:15:36;;;;;;;13.25;8.10;;;;;;;;;;5056572;28;20655;-59
2022/10/10 02:18:05;;;;;;;11.65;8.25;;;;;;;;;;5056613;28;20266;-60
2022/10/10 02:20:32;;;;;;;10.82;8.13;;;;;;;;;;5057484;28;20227;-60
2022/10/10 02:22:59;;;;;;;17.15;9.80;;;;;;;;;;5055884;28;20196;-59
2022/10/10 02:25:28;;;;;;;15.15;9.13;;;;;;;;;;5056528;28;20195;-60
2022/10/10 02:28:04;;;;;;;10.75;7.30;;;;;;;;;;5056589;28;20258;-60
2022/10/10 02:30:35;;;;;;;15.65;6.55;;;;;;;;;;5056234;28;20223;-60
2022/10/10 02:33:05;;;;;;;11.60;8.13;;;;;;;;;;5056016;28;20611;-60
2022/10/10 02:35:35;;;;;;;10.77;7.38;;;;;;;;;;5057063;28;20200;-59
2022/10/10 02:38:04;;;;;;;8.98;6.90;;;;;;;;;;5056738;28;20208;-60
2022/10/10 02:40:32;;;;;;;10.98;7.60;;;;;;;;;;5055799;28;20686;-60
2022/10/10 02:43:01;;;;;;;11.45;7.05;;;;;;;;;;5055795;28;20215;-60
2022/10/10 02:45:29;;;;;;;11.57;7.80;;;;;;;;;;5055968;28;20222;-60
2022/10/10 02:47:56;;;;;;;16.55;9.40;;;;;;;;;;5056813;28;20273;-60
2022/10/10 02:50:23;;;;;;;14.05;8.82;;;;;;;;;;5056974;28;20234;-60
2022/10/10 02:52:50;;;;;;;16.55;8.15;;;;;;;;;;5056813;28;20203;-60
2022/10/10 02:55:18;;;;;;;14.07;9.13;;;;;;;;;;5056600;28;20212;-59
2022/10/10 02:57:45;;;;;;;15.05;9.48;;;;;;;;;;5056434;28;20277;-60
2022/10/10 03:00:12;;;;;;;11.77;8.70;;;;;;;;;;5056463;28;20677;-60
2022/10/10 03:02:40;;;;;;;12.07;8.95;;;;;;;;;;5056576;28;20200;-60
2022/10/10 03:05:07;;;;;;;11.52;9.02;;;;;;;;;;5056340;28;20211;-59
2022/10/10 03:07:35;;;;;;;13.63;8.70;;;;;;;;;;5056775;28;20199;-60
2022/10/10 03:10:04;;;;;;;11.48;7.75;;;;;;;;;;5056343;28;20594;-60
2022/10/10 03:12:33;;;;;;;10.73;8.10;;;;;;;;;;5056178;28;20208;-59
2022/10/10 03:15:00;;;;;;;10.35;7.80;;;;;;;;;;5054947;28;20200;-60
2022/10/10 03:17:27;;;;;;;12.00;8.32;;;;;;;;;;5056053;28;20215;-60
2022/10/10 03:19:54;;;;;;;12.23;8.13;;;;;;;;;;5056196;28;20230;-60
2022/10/10 03:22:21;;;;;;;13.18;8.35;;;;;;;;;;5056217;28;20257;-60
2022/10/10 03:24:48;;;;;;;11.20;7.90;;;;;;;;;;5055815;28;20195;-60
2022/10/10 03:27:15;;;;;;;11.40;7.40;;;;;;;;;;5055808;28;20209;-60
2022/10/10 03:29:42;;;;;;;12.52;8.48;;;;;;;;;;5056035;28;20220;-60
2022/10/10 03:32:09;;;;;;;14.57;9.18;;;;;;;;;;5055943;28;20243;-60
2022/10/10 03:34:37;;;;;;;17.88;10.95;;;;;;;;;;5055165;28;20195;-60
2022/10/10 03:37:04;;;;;;;14.85;9.68;;;;;;;;;;5055742;28;20283;-60
2022/10/10 03:39:31;;;;;;;15.15;8.75;;;;;;;;;;5055615;28;20228;-60
2022/10/10 03:41:57;;;;;;;17.52;9.77;;;;;;;;;;5055442;28;20196;-59
2022/10/10 03:44:24;;;;;;;14.23;9.05;;;;;;;;;;5056261;28;20200;-60
2022/10/10 03:46:51;;;;;;;12.98;8.82;;;;;;;;;;5055371;28;20200;-60
2022/10/10 03:49:19;;;;;;;14.38;9.75;;;;;;;;;;5055937;28;20218;-59
2022/10/10 03:51:45;;;;;;;22.85;9.57;;;;;;;;;;5055343;28;20518;-60
2022/10/10 03:54:13;;;;;;;15.52;9.95;;;;;;;;;;5053275;28;20211;-60
2022/10/10 03:56:40;;;;;;;17.10;9.52;;;;;;;;;;5055205;28;20242;-60
2022/10/10 03:59:07;;;;;;;15.88;10.27;;;;;;;;;;5055045;28;20270;-59
2022/10/10 04:01:34;;;;;;;17.98;9.30;;;;;;;;;;5055245;28;20210;-60
2022/10/10 04:04:01;;;;;;;12.55;9.02;;;;;;;;;;5055449;28;20215;-60
2022/10/10 04:06:28;;;;;;;13.90;8.95;;;;;;;;;;5055256;28;20261;-60
2022/10/10 04:08:55;;;;;;;14.30;8.63;;;;;;;;;;5055319;28;20199;-59
2022/10/10 04:11:22;;;;;;;15.32;8.27;;;;;;;;;;5053144;28;20630;-60
2022/10/10 04:13:49;;;;;;;14.50;9.55;;;;;;;;;;5051295;28;20223;-60
2022/10/10 04:16:15;;;;;;;22.40;9.57;;;;;;;;;;5053943;28;20239;-61
2022/10/10 04:18:43;;;;;;;16.60;7.22;;;;;;;;;;5051985;28;20297;-60
2022/10/10 04:21:10;;;;;;;12.60;7.32;;;;;;;;;;5051839;28;20293;-60
2022/10/10 04:23:39;;;;;;;13.00;8.93;;;;;;;;;;5052915;28;20228;-59
2022/10/10 04:26:06;;;;;;;14.43;9.00;;;;;;;;;;5053340;28;20230;-61
2022/10/10 04:28:34;;;;;;;10.13;7.10;;;;;;;;;;5053789;28;20527;-61
2022/10/10 04:31:01;;;;;;;12.20;7.82;;;;;;;;;;5054398;28;20251;-60
2022/10/10 04:33:28;;;;;;;17.70;10.90;;;;;;;;;;5053759;28;20220;-54
2022/10/10 04:35:55;;;;;;;33.03;17.30;;;;;;;;;;5053684;28;20228;-61
2022/10/10 04:41:27;;;;;;;25.30;11.25;;;;;;;;;;4571269;28;20669;-57
2022/10/10 04:43:54;;;;;;;32.72;16.67;;;;;;;;;;5081617;28;20194;-49
2022/10/10 04:46:21;;;;;;;69.25;32.88;;;;;;;;;;5084095;28;20191;-52
2022/10/10 04:48:48;;;;;;;36.47;19.38;;;;;;;;;;5083276;28;20745;-49
2022/10/10 04:51:15;;;;;;;34.42;17.08;;;;;;;;;;5085915;28;20198;-51
2022/10/10 04:53:43;;;;;;;51.88;22.92;;;;;;;;;;5082746;28;20641;-50
2022/10/10 04:56:15;;;;;;;8.88;6.90;;;;;;;;;;5082073;28;20211;-56
2022/10/10 04:58:43;;;;;;;8.82;6.25;;;;;;;;;;5083758;28;20195;-53
2022/10/10 05:01:10;;;;;;;18.95;9.43;;;;;;;;;;5083753;28;20550;-54
2022/10/10 05:03:37;;;;;;;11.13;6.93;;;;;;;;;;5081973;28;20630;-55
2022/10/10 05:06:04;;;;;;;10.82;5.65;;;;;;;;;;5083384;28;20191;-53
2022/10/10 05:08:31;;;;;;;8.23;5.90;;;;;;;;;;5084231;28;20210;-52
2022/10/10 05:10:58;;;;;;;11.02;7.15;;;;;;;;;;5078834;28;20199;-51
2022/10/10 05:13:25;;;;;;;18.95;9.93;;;;;;;;;;5083399;28;20272;-53
2022/10/10 05:15:52;;;;;;;14.27;7.28;;;;;;;;;;5082367;28;20201;-52
2022/10/10 05:18:20;;;;;;;16.13;9.07;;;;;;;;;;5079554;28;20192;-52
2022/10/10 05:20:47;;;;;;;13.43;6.00;;;;;;;;;;5082622;28;20620;-49
2022/10/10 05:23:15;;;;;;;11.25;6.35;;;;;;;;;;5084140;28;20260;-53
2022/10/10 05:25:43;;;;;;;27.83;12.68;;;;;;;;;;5082818;28;20528;-52
2022/10/10 05:28:11;;;;;;;55.60;21.02;;;;;;;;;;5082176;28;20195;-52
2022/10/10 05:30:38;;;;;;;80.22;29.52;;;;;;;;;;5083884;28;20198;-52
2022/10/10 05:33:05;;;;;;;48.03;20.02;;;;;;;;;;5044260;28;20207;-48
2022/10/10 05:35:32;;;;;;;35.72;13.27;;;;;;;;;;5074066;28;20657;-53
2022/10/10 05:37:59;;;;;;;14.60;8.82;;;;;;;;;;5073891;28;20261;-54
2022/10/10 05:40:26;;;;;;;11.93;6.63;;;;;;;;;;5073599;28;20277;-49
2022/10/10 05:42:53;;;;;;;23.35;10.63;;;;;;;;;;5073899;28;20214;-53
2022/10/10 05:45:20;;;;;;;33.47;15.35;;;;;;;;;;5074173;28;20211;-54
2022/10/10 05:47:47;;;;;;;21.75;10.00;;;;;;;;;;5074257;28;20692;-51
2022/10/10 05:50:33;;;;;;;15.02;8.68;;;;;;;;;;5069358;28;20286;-57
2022/10/10 05:53:01;;;;;;;16.88;10.13;;;;;;;;;;5036664;28;20188;-55
2022/10/10 05:55:28;;;;;;;13.75;8.70;;;;;;;;;;5036775;28;20646;-55
2022/10/10 05:57:55;;;;;;;15.20;9.02;;;;;;;;;;5075662;28;20566;-57
2022/10/10 06:00:22;;;;;;;18.33;9.73;;;;;;;;;;5077912;28;20215;-55
2022/10/10 06:02:49;;;;;;;21.23;10.88;;;;;;;;;;5077308;28;20261;-55
2022/10/10 06:05:17;;;;;;;23.13;12.02;;;;;;;;;;5077239;28;20210;-57
2022/10/10 06:07:44;;;;;;;25.15;11.60;;;;;;;;;;5076237;28;20202;-54
2022/10/10 06:10:40;;;;;;;20.98;11.10;;;;;;;;;;5077543;28;20258;-54
2022/10/10 06:13:09;;;;;;;16.73;10.35;;;;;;;;;;5071566;28;20206;-49
2022/10/10 06:15:36;;;;;;;20.52;10.27;;;;;;;;;;5072895;28;20377;-56
2022/10/10 06:18:05;;;;;;;21.67;10.60;;;;;;;;;;5077100;28;20203;-55
2022/10/10 06:20:39;;;;;;;33.95;14.02;;;;;;;;;;5076653;28;20234;-54
2022/10/10 06:23:07;;;;;;;34.88;13.73;;;;;;;;;;5076897;28;20329;-57
2022/10/10 06:25:35;;;;;;;26.27;12.35;;;;;;;;;;5064163;28;20287;-54
2022/10/10 06:28:08;;;;;;;26.20;12.60;;;;;;;;;;5056942;28;20192;-54
2022/10/10 06:30:40;;;;;;;23.13;11.73;;;;;;;;;;5057229;28;20295;-55
2022/10/10 06:33:07;;;;;;;21.73;10.40;;;;;;;;;;5056966;28;20188;-54
2022/10/10 06:35:40;;;;;;;21.48;10.80;;;;;;;;;;5056769;28;20290;-52
2022/10/10 06:38:08;;;;;;;43.95;17.75;;;;;;;;;;5057123;28;20192;-53
2022/10/10 06:40:35;;;;;;;48.35;18.63;;;;;;;;;;5059751;28;20297;-53
2022/10/10 06:43:03;;;;;;;82.50;27.88;;;;;;;;;;5064879;28;20232;-51
2022/10/10 06:45:34;;;;;;;22.25;11.55;;;;;;;;;;5055819;28;20598;-49
2022/10/10 06:48:02;;;;;;;22.50;12.00;;;;;;;;;;5067897;28;20235;-49
2022/10/10 06:50:29;;;;;;;37.17;15.63;;;;;;;;;;5066444;28;20289;-49
2022/10/10 06:52:56;;;;;;;25.90;12.95;;;;;;;;;;5057177;28;20231;-49
2022/10/10 06:55:23;;;;;;;26.38;13.70;;;;;;;;;;5069373;28;20296;-54
2022/10/10 06:57:50;;;;;;;21.70;11.48;;;;;;;;;;5075452;28;20696;-52
2022/10/10 07:00:17;;;;;;;33.92;14.70;;;;;;;;;;5075376;28;20719;-51
2022/10/10 07:02:45;;;;;;;19.40;11.43;;;;;;;;;;5075445;28;20257;-52
2022/10/10 07:05:17;;;;;;;19.33;10.93;;;;;;;;;;5075772;28;20665;-50
2022/10/10 07:07:44;;;;;;;18.17;11.70;;;;;;;;;;5075709;28;20228;-52
2022/10/10 07:10:12;;;;;;;18.48;11.27;;;;;;;;;;5075102;28;20272;-50
2022/10/10 07:12:40;;;;;;;38.92;15.43;;;;;;;;;;5075586;28;20230;-51
2022/10/10 07:15:11;;;;;;;17.60;10.68;;;;;;;;;;5075161;28;20234;-49
2022/10/10 07:17:38;;;;;;;21.60;11.63;;;;;;;;;;5075485;28;20227;-49
2022/10/10 07:20:05;;;;;;;20.38;12.52;;;;;;;;;;5075145;28;20223;-48
2022/10/10 07:22:33;;;;;;;18.02;11.60;;;;;;;;;;5076016;28;20200;-53
2022/10/10 07:25:00;;;;;;;19.08;12.00;;;;;;;;;;5073980;28;20235;-54
2022/10/10 07:27:27;;;;;;;18.58;11.45;;;;;;;;;;5076091;28;20237;-56
2022/10/10 07:29:54;;;;;;;13.88;9.75;;;;;;;;;;5075481;28;20494;-57
2022/10/10 07:32:21;;;;;;;18.33;11.80;;;;;;;;;;5075847;28;20203;-56
2022/10/10 07:34:49;;;;;;;35.25;17.55;;;;;;;;;;5076002;28;20213;-56
2022/10/10 07:37:16;;;;;;;45.80;19.15;;;;;;;;;;5075520;28;20218;-57
2022/10/10 07:39:43;;;;;;;44.33;19.92;;;;;;;;;;5075300;28;20210;-55
2022/10/10 07:42:10;;;;;;;56.45;24.30;;;;;;;;;;5075307;28;20246;-56
2022/10/10 07:44:37;;;;;;;39.88;19.58;;;;;;;;;;5075435;28;20203;-56
2022/10/10 07:47:04;;;;;;;52.53;23.15;;;;;;;;;;5075492;28;20203;-56
2022/10/10 07:49:31;;;;;;;36.50;19.17;;;;;;;;;;5072610;28;20634;-55
2022/10/10 07:51:58;;;;;;;42.80;20.20;;;;;;;;;;5074914;28;20238;-58
2022/10/10 07:54:30;;;;;;;32.72;20.63;;;;;;;;;;5075308;28;20199;-55
2022/10/10 07:56:58;;;;;;;29.25;17.50;;;;;;;;;;5075266;28;20184;-56
2022/10/10 07:59:25;;;;;;;20.45;12.00;;;;;;;;;;5075050;28;20641;-56
2022/10/10 08:01:52;;;;;;;17.33;11.90;;;;;;;;;;5075102;28;20227;-56
2022/10/10 08:04:19;;;;;;;20.42;12.93;;;;;;;;;;5075323;28;20249;-57
2022/10/10 08:06:47;;;;;;;20.42;12.90;;;;;;;;;;5074895;28;20200;-55
2022/10/10 08:09:14;;;;;;;73.32;28.08;;;;;;;;;;5057871;28;20270;-58
2022/10/10 08:11:41;;;;;;;31.45;16.13;;;;;;;;;;5066443;28;20234;-54
2022/10/10 08:14:08;;;;;;;42.20;19.85;;;;;;;;;;5068759;28;20532;-56
2022/10/10 08:16:35;;;;;;;60.58;27.10;;;;;;;;;;5074948;28;20203;-58
2022/10/10 08:19:03;;;;;;;33.15;18.48;;;;;;;;;;5074876;28;20706;-56
2022/10/10 08:21:31;;;;;;;48.90;22.60;;;;;;;;;;5068284;28;20219;-56
2022/10/10 08:23:58;;;;;;;65.28;26.35;;;;;;;;;;5054962;28;20200;-56
2022/10/10 08:26:25;;;;;;;53.92;23.38;;;;;;;;;;5054772;28;20212;-62
2022/10/10 08:28:52;;;;;;;49.78;22.38;;;;;;;;;;5073762;28;20203;-57
2022/10/10 08:31:20;;;;;;;43.20;21.75;;;;;;;;;;5074413;28;20218;-56
2022/10/10 08:33:49;;;;;;;37.67;20.08;;;;;;;;;;5075100;28;20234;-56
2022/10/10 08:36:21;;;;;;;28.98;17.55;;;;;;;;;;5055406;28;20696;-57
2022/10/10 08:38:48;;;;;;;40.67;20.40;;;;;;;;;;5054631;28;20637;-57
2022/10/10 08:41:39;;;;;;;26.33;18.20;;;;;;;;;;5054814;28;20240;-57
2022/10/10 08:44:11;;;;;;;37.17;19.30;;;;;;;;;;5037692;28;20184;-56
2022/10/10 08:46:39;;;;;;;33.95;18.73;;;;;;;;;;5037706;28;20184;-57
2022/10/10 08:49:18;;;;;;;29.67;18.08;;;;;;;;;;5074560;28;20245;-57
2022/10/10 08:51:52;;;;;;;24.13;16.48;;;;;;;;;;5074297;28;20618;-56
2022/10/10 08:54:21;;;;;;;25.13;16.50;;;;;;;;;;5057171;28;20610;-57
2022/10/10 08:56:49;;;;;;;40.95;20.48;;;;;;;;;;5074395;28;20636;-57
2022/10/10 08:59:37;;;;;;;41.20;19.48;;;;;;;;;;5074696;28;20199;-58
2022/10/10 09:02:24;;;;;;;27.73;16.63;;;;;;;;;;5056851;28;20230;-57
2022/10/10 09:05:04;;;;;;;23.90;14.75;;;;;;;;;;5074879;28;20655;-56
2022/10/10 09:07:53;;;;;;;47.58;18.30;;;;;;;;;;5039629;28;20211;-58
2022/10/10 09:10:40;;;;;;;91.53;40.25;;;;;;;;;;5057280;28;20257;-57
2022/10/10 09:13:29;;;;;;;61.90;23.77;;;;;;;;;;5053343;28;20205;-57
2022/10/10 09:16:00;;;;;;;22.70;13.60;;;;;;;;;;5054602;28;20521;-58
2022/10/10 09:18:37;;;;;;;55.42;24.65;;;;;;;;;;5053492;28;20196;-59
2022/10/10 09:21:21;;;;;;;43.58;20.05;;;;;;;;;;5053729;28;20212;-57
2022/10/10 09:24:27;;;;;;;35.13;19.13;;;;;;;;;;5053633;28;20195;-56
2022/10/10 09:27:02;;;;;;;25.05;14.88;;;;;;;;;;5054311;28;20346;-58
2022/10/10 09:29:38;;;;;;;26.00;10.50;;;;;;;;;;5074345;28;20531;-57
2022/10/10 09:32:16;;;;;;;262.15;210.18;;;;;;;;;;5059042;28;20191;-57
2022/10/10 09:34:50;;;;;;;75.78;57.85;;;;;;;;;;5077941;28;20633;-58
2022/10/10 09:37:20;;;;;;;50.35;34.90;;;;;;;;;;5075214;28;20282;-57
2022/10/10 09:40:16;;;;;;;30.67;20.70;;;;;;;;;;5057779;28;20666;-57
2022/10/10 09:42:44;;;;;;;32.30;13.00;;;;;;;;;;5042960;28;20534;-57
2022/10/10 09:45:19;;;;;;;29.27;13.23;;;;;;;;;;5057893;28;20204;-58
2022/10/10 09:47:48;;;;;;;19.48;11.15;;;;;;;;;;5064163;28;20333;-58
2022/10/10 09:50:16;;;;;;;24.13;9.70;;;;;;;;;;5078181;28;20226;-57
2022/10/10 09:52:44;;;;;;;21.00;8.95;;;;;;;;;;5076920;28;20634;-57
2022/10/10 09:55:37;;;;;;;17.55;7.30;;;;;;;;;;5060093;28;20207;-57
2022/10/10 09:58:26;;;;;;;21.00;9.27;;;;;;;;;;5056979;28;20255;-58
2022/10/10 10:00:54;;;;;;;23.40;15.85;;;;;;;;;;5056881;28;20265;-57
2022/10/10 10:03:21;;;;;;;20.98;10.20;;;;;;;;;;5053001;28;20204;-57
2022/10/10 10:05:57;;;;;;;10.23;5.15;;;;;;;;;;5040205;28;20230;-58
2022/10/10 10:08:33;;;;;;;19.45;7.03;;;;;;;;;;5068085;28;20191;-57
2022/10/10 10:11:01;;;;;;;9.93;6.05;;;;;;;;;;5060508;28;20202;-57
2022/10/10 10:13:36;;;;;;;15.82;8.57;;;;;;;;;;5059761;28;20200;-58
2022/10/10 10:16:05;;;;;;;12.48;8.52;;;;;;;;;;5060181;28;20188;-57
2022/10/10 10:18:41;;;;;;;12.45;6.15;;;;;;;;;;5066409;28;20302;-57
2022/10/10 10:21:13;;;;;;;8.18;4.25;;;;;;;;;;5057027;28;20278;-57
2022/10/10 10:24:00;;;;;;;7.43;3.65;;;;;;;;;;5057104;28;20207;-56
2022/10/10 10:26:44;;;;;;;14.98;5.80;;;;;;;;;;5039898;28;20535;-50
2022/10/10 10:29:26;;;;;;;9.35;3.97;;;;;;;;;;5057361;28;20312;-56
2022/10/10 10:32:03;;;;;;;7.05;3.17;;;;;;;;;;5057400;28;20208;-51
2022/10/10 10:34:42;;;;;;;10.15;4.15;;;;;;;;;;5057052;28;20594;-51
2022/10/10 10:37:42;;;;;;;11.07;4.38;;;;;;;;;;5039586;28;20265;-55
2022/10/10 10:40:37;;;;;;;8.50;3.75;;;;;;;;;;4941295;29;20318;-56
2022/10/10 10:43:20;;;;;;;10.27;5.85;;;;;;;;;;4956650;28;20239;-55
2022/10/10 10:46:20;;;;;;;13.45;5.90;;;;;;;;;;4957732;29;20254;-51
2022/10/10 10:48:53;;;;;;;8.77;5.00;;;;;;;;;;4956545;28;20231;-57
2022/10/10 10:51:27;;;;;;;8.90;4.95;;;;;;;;;;4975394;28;20322;-57
2022/10/10 10:54:06;;;;;;;8.50;4.43;;;;;;;;;;4974905;28;20719;-56
2022/10/10 10:57:11;;;;;;;7.05;4.75;;;;;;;;;;4975343;28;20736;-53
2022/10/10 11:00:10;;;;;;;9.82;3.95;;;;;;;;;;4965126;28;20238;-51
2022/10/10 11:03:17;;;;;;;7.95;4.18;;;;;;;;;;4963825;28;20266;-56
2022/10/10 11:06:32;;;;;;;6.50;3.80;;;;;;;;;;4975100;28;20238;-51
2022/10/10 11:09:14;;;;;;;4.60;3.22;;;;;;;;;;4974750;28;20234;-52
2022/10/10 11:12:24;;;;;;;8.65;5.63;;;;;;;;;;4974986;28;20263;-57
2022/10/10 11:15:00;;;;;;;15.10;10.73;;;;;;;;;;4974757;28;20293;-58
2022/10/10 11:17:40;;;;;;;6.00;3.40;;;;;;;;;;5024469;28;20598;-52
2022/10/10 11:20:25;;;;;;;5.90;2.97;;;;;;;;;;5050946;28;20229;-53
2022/10/10 11:22:59;;;;;;;6.75;2.45;;;;;;;;;;5036104;28;20606;-54
2022/10/10 11:25:40;;;;;;;4.00;2.35;;;;;;;;;;5034195;28;20518;-58
2022/10/10 11:28:08;;;;;;;5.47;2.88;;;;;;;;;;5050527;28;20199;-57
2022/10/10 11:30:40;;;;;;;5.47;2.22;;;;;;;;;;5056049;28;20200;-59
2022/10/10 11:33:15;;;;;;;4.70;2.20;;;;;;;;;;5054475;28;20624;-57
2022/10/10 11:35:46;;;;;;;4.90;1.80;;;;;;;;;;5054769;28;20636;-57
2022/10/10 11:38:21;;;;;;;4.40;1.95;;;;;;;;;;5040037;28;20216;-57
2022/10/10 11:41:01;;;;;;;4.40;2.15;;;;;;;;;;5044657;28;20235;-57
2022/10/10 11:43:31;;;;;;;5.05;2.30;;;;;;;;;;5056519;28;20203;-58
2022/10/10 11:46:25;;;;;;;6.35;2.25;;;;;;;;;;5057864;28;20299;-58
2022/10/10 11:48:58;;;;;;;4.85;2.10;;;;;;;;;;5055740;28;20193;-57
2022/10/10 11:51:44;;;;;;;5.30;1.92;;;;;;;;;;5054699;28;20583;-58
2022/10/10 11:54:43;;;;;;;6.25;2.63;;;;;;;;;;5057778;28;20265;-56
2022/10/10 11:57:19;;;;;;;3.97;2.10;;;;;;;;;;5054632;28;20193;-57
2022/10/10 11:59:56;;;;;;;4.32;1.65;;;;;;;;;;5055804;28;20192;-59
2022/10/10 12:02:30;;;;;;;4.22;1.80;;;;;;;;;;5065590;28;20306;-56
2022/10/10 12:04:58;;;;;;;1.70;1.33;;;;;;;;;;5084631;28;20621;-59
2022/10/10 12:07:40;;;;;;;7.18;2.58;;;;;;;;;;5060564;28;20195;-51
2022/10/10 12:10:14;;;;;;;6.88;2.20;;;;;;;;;;5076546;28;20191;-58
2022/10/10 12:12:44;;;;;;;5.00;1.80;;;;;;;;;;5066809;28;20281;-55
2022/10/10 12:15:32;;;;;;;3.05;1.50;;;;;;;;;;5064379;28;20632;-55
2022/10/10 12:18:05;;;;;;;1.67;1.30;;;;;;;;;;5083358;28;20187;-58
2022/10/10 12:20:34;;;;;;;2.75;1.42;;;;;;;;;;5092123;28;20271;-57
2022/10/10 12:23:13;;;;;;;4.22;1.92;;;;;;;;;;5083637;28;20661;-58
2022/10/10 12:25:44;;;;;;;3.67;1.75;;;;;;;;;;5082933;28;20192;-57
2022/10/10 12:28:14;;;;;;;4.07;2.08;;;;;;;;;;5084676;28;20555;-58
2022/10/10 12:31:01;;;;;;;4.70;1.77;;;;;;;;;;5080327;28;20202;-57
2022/10/10 12:33:31;;;;;;;5.20;2.40;;;;;;;;;;5030153;28;20558;-57
2022/10/10 12:36:17;;;;;;;2.72;1.67;;;;;;;;;;5080148;28;20219;-59
2022/10/10 12:39:04;;;;;;;4.90;1.67;;;;;;;;;;5080657;28;20288;-58
2022/10/10 12:41:41;;;;;;;4.72;1.42;;;;;;;;;;5078446;28;20371;-58
2022/10/10 12:44:34;;;;;;;3.28;1.80;;;;;;;;;;5078197;28;20215;-58
2022/10/10 12:47:13;;;;;;;4.18;1.98;;;;;;;;;;5079209;28;20641;-58
2022/10/10 12:49:52;;;;;;;3.95;2.00;;;;;;;;;;5082675;28;20234;-58
2022/10/10 12:52:23;;;;;;;6.63;1.98;;;;;;;;;;5058478;28;20683;-58
2022/10/10 12:54:50;;;;;;;3.30;1.77;;;;;;;;;;5081327;28;20218;-58
2022/10/10 12:57:40;;;;;;;4.30;2.05;;;;;;;;;;5063314;28;20284;-57
2022/10/10 13:00:16;;;;;;;3.20;2.20;;;;;;;;;;5063976;28;20239;-55
2022/10/10 13:02:46;;;;;;;5.38;2.00;;;;;;;;;;5081082;28;20241;-58
2022/10/10 13:05:16;;;;;;;3.67;2.35;;;;;;;;;;5082419;28;20228;-58
2022/10/10 13:07:45;;;;;;;10.50;2.25;;;;;;;;;;5085399;28;20280;-56
2022/10/10 13:10:24;;;;;;;3.53;1.90;;;;;;;;;;5086774;28;20760;-56
2022/10/10 13:13:16;;;;;;;3.92;1.90;;;;;;;;;;5083169;28;20234;-59
2022/10/10 13:15:56;;;;;;;3.42;1.58;;;;;;;;;;5085730;28;20888;-56
2022/10/10 13:18:36;;;;;;;6.32;2.13;;;;;;;;;;5084880;28;20222;-55
2022/10/10 13:21:05;;;;;;;3.35;1.75;;;;;;;;;;5084240;28;20222;-54
2022/10/10 13:23:40;;;;;;;4.38;1.65;;;;;;;;;;5085834;28;20545;-53
2022/10/10 13:26:20;;;;;;;2.70;1.33;;;;;;;;;;5065478;28;20281;-57
2022/10/10 13:28:48;;;;;;;3.25;1.27;;;;;;;;;;5056194;28;20223;-53
2022/10/10 13:31:15;;;;;;;3.72;1.20;;;;;;;;;;5077053;28;20219;-56
2022/10/10 13:33:43;;;;;;;2.85;1.48;;;;;;;;;;5076799;28;20657;-54
2022/10/10 13:36:19;;;;;;;2.90;1.08;;;;;;;;;;5059690;28;20230;-56
2022/10/10 13:38:49;;;;;;;5.22;1.92;;;;;;;;;;5076843;28;20229;-57
2022/10/10 13:41:17;;;;;;;4.55;1.95;;;;;;;;;;5044674;28;20698;-57
2022/10/10 13:43:44;;;;;;;2.20;1.23;;;;;;;;;;5073496;28;20235;-51
2022/10/10 13:46:32;;;;;;;3.28;1.80;;;;;;;;;;5086925;28;20226;-60
2022/10/10 13:48:59;;;;;;;2.97;1.40;;;;;;;;;;5081689;28;20216;-54
2022/10/10 13:51:43;;;;;;;7.22;1.55;;;;;;;;;;5088843;28;20748;-55
2022/10/10 13:54:35;;;;;;;3.45;1.80;;;;;;;;;;5089552;28;20218;-52
2022/10/10 13:57:03;;;;;;;3.50;1.80;;;;;;;;;;5069040;28;20285;-55
2022/10/10 13:59:32;;;;;;;5.75;2.75;;;;;;;;;;5076934;28;20223;-57
2022/10/10 14:02:00;;;;;;;3.67;2.10;;;;;;;;;;5076135;28;20237;-56
2022/10/10 14:04:33;;;;;;;6.78;2.05;;;;;;;;;;5061130;28;20231;-55
2022/10/10 14:07:03;;;;;;;3.13;1.45;;;;;;;;;;5038965;28;20231;-53
2022/10/10 14:09:43;;;;;;;9.13;1.67;;;;;;;;;;5055739;28;20266;-55
2022/10/10 14:12:29;;;;;;;7.63;3.95;;;;;;;;;;5070508;28;20231;-58
2022/10/10 14:14:58;;;;;;;77.63;32.35;;;;;;;;;;5072159;28;20288;-59
2022/10/10 14:17:25;;;;;;;29.50;12.43;;;;;;;;;;5073418;28;20701;-58
2022/10/10 14:19:52;;;;;;;21.80;9.23;;;;;;;;;;5079087;28;20315;-58
2022/10/10 14:22:21;;;;;;;5.65;2.67;;;;;;;;;;5054240;28;20232;-59
2022/10/10 14:24:48;;;;;;;3.97;1.65;;;;;;;;;;5070453;28;20227;-58
2022/10/10 14:27:21;;;;;;;25.55;8.88;;;;;;;;;;5074747;28;20226;-58
2022/10/10 14:29:49;;;;;;;10.60;2.67;;;;;;;;;;5074801;28;20410;-58
2022/10/10 14:32:17;;;;;;;7.95;3.47;;;;;;;;;;5075896;28;20636;-56
2022/10/10 14:34:44;;;;;;;4.82;1.65;;;;;;;;;;5075513;28;20281;-56
2022/10/10 14:37:22;;;;;;;9.00;1.88;;;;;;;;;;5075697;28;20219;-58
2022/10/10 14:39:49;;;;;;;2.10;1.20;;;;;;;;;;5075355;28;20564;-59
2022/10/10 14:42:18;;;;;;;7.28;2.20;;;;;;;;;;5076278;28;20231;-57
2022/10/10 14:44:45;;;;;;;5.15;1.10;;;;;;;;;;5074899;28;20228;-56
2022/10/10 14:47:18;;;;;;;5.50;1.35;;;;;;;;;;5075332;28;20309;-58
2022/10/10 14:49:45;;;;;;;6.95;3.25;;;;;;;;;;5077998;28;20676;-56
2022/10/10 14:52:12;;;;;;;5.20;2.05;;;;;;;;;;5076004;28;20314;-57
2022/10/10 14:54:39;;;;;;;4.40;2.00;;;;;;;;;;5075691;28;20223;-57
2022/10/10 14:57:06;;;;;;;5.10;1.98;;;;;;;;;;5075629;28;20255;-58
2022/10/10 14:59:36;;;;;;;5.03;2.15;;;;;;;;;;5074975;28;20711;-56
2022/10/10 15:02:14;;;;;;;4.88;2.40;;;;;;;;;;5075424;28;20230;-57
2022/10/10 15:04:41;;;;;;;2.65;1.77;;;;;;;;;;5075545;28;20230;-56